This is the latest recevied weather packets stored in our database for station/object IW7DVM-13. If no packets are shown the sender has not sent any weather packets the latest 10 day(s).
| Time | Temp. | Humidity | Pressure | Rain* | Wind** | Luminosity | Snow |
|---|---|---|---|---|---|---|---|
| 1788027903 | 33.33° C | 51% | 1008.6 hPa | 0 mm | - | - | - |
| 1788027603 | 32.78° C | 53% | 1008.5 hPa | 0 mm | - | - | - |
| 1788027303 | 32.78° C | 54% | 1008.4 hPa | 0 mm | - | - | - |
| 1788027003 | 32.78° C | 52% | 1008.4 hPa | 0 mm | - | - | - |
| 1788026703 | 32.22° C | 58% | 1008.4 hPa | 0 mm | - | - | - |
| 1788026403 | 32.22° C | 59% | 1008.3 hPa | 0 mm | - | - | - |
| 1788026103 | 32.22° C | 59% | 1008.3 hPa | 0 mm | - | - | - |
| 1788025803 | 33.33° C | 56% | 1008.2 hPa | 0 mm | - | - | - |
| 1788025503 | 34.44° C | 44% | 1008.1 hPa | 0 mm | - | - | - |
| 1788025203 | 34.44° C | 44% | 1008 hPa | 0 mm | - | - | - |
| 1788024903 | 33.33° C | 47% | 1007.9 hPa | 0 mm | - | - | - |
| 1788024603 | 33.33° C | 52% | 1007.8 hPa | 0 mm | - | - | - |
| 1788024303 | 33.33° C | 54% | 1007.8 hPa | 0 mm | - | - | - |
| 1788024003 | 33.89° C | 52% | 1007.9 hPa | 0 mm | - | - | - |
| 1788023703 | 35° C | 45% | 1007.9 hPa | 0 mm | - | - | - |
| 1788023403 | 35.56° C | 43% | 1007.9 hPa | 0 mm | - | - | - |
| 1788023103 | 37.78° C | 34% | 1007.7 hPa | 0 mm | - | - | - |
| 1788022803 | 37.78° C | 25% | 1007.7 hPa | 0 mm | - | - | - |
| 1788022503 | 37.78° C | 25% | 1007.6 hPa | 0 mm | - | - | - |
| 1788022203 | 37.78° C | 25% | 1007.5 hPa | 0 mm | - | - | - |
| 1788021903 | 38.33° C | 25% | 1007.6 hPa | 0 mm | - | - | - |
| 1788021604 | 38.33° C | 25% | 1007.6 hPa | 0 mm | - | - | - |
| 1788021303 | 37.78° C | 25% | 1007.7 hPa | 0 mm | - | - | - |
| 1788021003 | 37.78° C | 26% | 1007.7 hPa | 0 mm | - | - | - |
| 1788020703 | 37.78° C | 27% | 1007.7 hPa | 0 mm | - | - | - |
* Rain latest hour (hover to see other rain measurements)
** Current wind speed in m/s (hover to see current wind gust speed)